Time;durP1;ratioP1;P1;durP2;ratioP2;P2;SDS_P1;SDS_P2;PMS_P1;PMS_P2;Temp;Humidity;BMP_temperature;BMP_pressure;BME280_temperature;BME280_humidity;BME280_pressure;Samples;Min_cycle;Max_cycle;Signal;HPM_P1;HPM_P2
2021/12/07 00:01:57;;;;;;;9.57;4.20;;;5.80;99.90;;;;;;5057106;28;20166;-88
2021/12/07 00:04:23;;;;;;;8.33;3.93;;;5.80;99.90;;;;;;5041362;28;20177;-87
2021/12/07 00:06:52;;;;;;;16.87;5.77;;;5.80;99.90;;;;;;5039202;28;20212;-89
2021/12/07 00:09:18;;;;;;;12.97;4.40;;;5.70;99.90;;;;;;5037937;28;20172;-88
2021/12/07 00:11:47;;;;;;;10.10;4.23;;;5.70;99.90;;;;;;5039241;28;20211;-89
2021/12/07 00:14:14;;;;;;;8.53;4.30;;;5.80;99.90;;;;;;5025746;28;20243;-89
2021/12/07 00:16:42;;;;;;;10.10;4.77;;;5.80;99.90;;;;;;5044979;28;20173;-87
2021/12/07 00:19:10;;;;;;;10.17;4.33;;;6.00;99.90;;;;;;5044735;28;20234;-89
2021/12/07 00:21:39;;;;;;;13.07;4.70;;;5.90;99.90;;;;;;5045884;28;20600;-87
2021/12/07 00:24:05;;;;;;;16.30;5.23;;;5.80;99.90;;;;;;5048592;28;20593;-89
2021/12/07 00:26:32;;;;;;;17.20;5.03;;;5.90;99.90;;;;;;5048301;28;20174;-86
2021/12/07 00:28:59;;;;;;;9.20;4.67;;;5.80;99.90;;;;;;5048229;28;20181;-89
2021/12/07 00:31:34;;;;;;;12.33;5.00;;;5.90;99.90;;;;;;5048246;28;20787;-89
2021/12/07 00:36:44;;;;;;;13.83;4.80;;;5.90;99.90;;;;;;5040833;28;20170;-89
2021/12/07 00:39:16;;;;;;;11.60;5.03;;;6.00;99.90;;;;;;5038207;28;20256;-89
2021/12/07 00:41:42;;;;;;;14.17;5.63;;;6.00;99.90;;;;;;5039515;28;20242;-90
2021/12/07 00:44:10;;;;;;;11.70;4.53;;;5.90;99.90;;;;;;5045048;28;20169;-89
2021/12/07 00:46:36;;;;;;;10.70;4.37;;;5.90;99.90;;;;;;5041174;28;20237;-89
2021/12/07 00:49:03;;;;;;;10.00;4.23;;;5.80;99.90;;;;;;5059515;28;20217;-90
2021/12/07 00:51:29;;;;;;;9.33;4.33;;;5.90;99.90;;;;;;5058306;28;20212;-85
2021/12/07 00:53:55;;;;;;;9.87;4.37;;;6.00;99.90;;;;;;5059700;28;20142;-84
2021/12/07 00:56:22;;;;;;;13.53;4.40;;;6.00;99.90;;;;;;5059347;28;20158;-84
2021/12/07 00:58:52;;;;;;;9.97;3.90;;;6.10;99.90;;;;;;5056701;28;20149;-85
2021/12/07 01:01:21;;;;;;;14.00;4.40;;;6.00;99.90;;;;;;5054079;28;20177;-87
2021/12/07 01:03:49;;;;;;;11.50;4.90;;;6.00;99.90;;;;;;5051585;28;20170;-88
2021/12/07 01:06:28;;;;;;;13.43;4.90;;;6.00;99.90;;;;;;5053575;28;20180;-89
2021/12/07 01:09:20;;;;;;;12.30;4.80;;;6.10;99.90;;;;;;5051739;28;20150;-90
2021/12/07 01:25:33;;;;;;;13.77;4.87;;;6.20;99.90;;;;;;5058153;28;20208;-83
2021/12/07 01:28:20;;;;;;;13.77;4.10;;;6.00;99.90;;;;;;5052908;28;20161;-88
2021/12/07 01:37:04;;;;;;;11.07;3.70;;;6.20;99.90;;;;;;5036600;28;20679;-80
2021/12/07 01:53:09;;;;;;;8.77;3.70;;;5.90;99.90;;;;;;5020013;28;20218;-89
2021/12/07 02:01:10;;;;;;;11.33;4.13;;;5.80;99.90;;;;;;5020766;28;20196;-87
2021/12/07 02:03:38;;;;;;;11.73;4.33;;;5.90;99.90;;;;;;5017270;28;20170;-90
2021/12/07 02:06:10;;;;;;;11.97;4.17;;;6.00;99.90;;;;;;5017170;28;20163;-86
2021/12/07 02:08:38;;;;;;;11.57;3.70;;;5.80;99.90;;;;;;5022645;28;20169;-90
2021/12/07 02:11:06;;;;;;;9.10;3.40;;;5.80;99.90;;;;;;5032408;28;20198;-85
2021/12/07 02:15:58;;;;;;;9.70;4.00;;;5.80;99.90;;;;;;5017121;28;20185;-90
2021/12/07 02:18:24;;;;;;;9.33;3.47;;;5.80;99.90;;;;;;5015704;28;20188;-90
2021/12/07 02:20:51;;;;;;;10.87;3.90;;;5.80;99.90;;;;;;5025679;28;20251;-84
2021/12/07 02:23:17;;;;;;;10.33;3.53;;;5.80;99.90;;;;;;5020702;28;20174;-85
2021/12/07 02:25:43;;;;;;;9.13;3.50;;;5.80;99.90;;;;;;5019800;28;20670;-89
2021/12/07 02:28:16;;;;;;;11.40;3.43;;;5.90;99.90;;;;;;5037044;28;20245;-81
2021/12/07 02:30:44;;;;;;;8.97;2.80;;;5.80;99.90;;;;;;5038531;28;20178;-85
2021/12/07 02:33:10;;;;;;;9.67;2.97;;;5.90;99.90;;;;;;5038518;28;20175;-81
2021/12/07 02:39:33;;;;;;;9.93;3.53;;;5.90;99.90;;;;;;5017495;28;20760;-89
2021/12/07 02:42:01;;;;;;;15.73;3.27;;;5.90;99.90;;;;;;5016836;28;20186;-89
2021/12/07 02:44:26;;;;;;;8.27;3.03;;;5.80;99.90;;;;;;5016102;28;20166;-80
2021/12/07 02:46:52;;;;;;;8.83;2.90;;;5.70;99.90;;;;;;5016088;28;20232;-89
2021/12/07 02:49:19;;;;;;;10.23;3.00;;;5.60;99.90;;;;;;5031243;28;20241;-86
2021/12/07 02:51:46;;;;;;;9.00;3.37;;;5.50;99.90;;;;;;5038469;28;20216;-86
2021/12/07 02:54:12;;;;;;;10.00;3.30;;;5.40;99.90;;;;;;5037813;28;20163;-84
2021/12/07 02:56:38;;;;;;;12.10;3.00;;;5.30;99.90;;;;;;5036051;28;20159;-89
2021/12/07 02:59:07;;;;;;;7.07;2.87;;;5.30;99.90;;;;;;5014907;28;20213;-90
2021/12/07 03:01:38;;;;;;;9.17;2.97;;;5.20;99.90;;;;;;5015089;28;20265;-88
2021/12/07 03:04:10;;;;;;;7.60;2.80;;;5.30;99.90;;;;;;5015515;28;20305;-87
2021/12/07 03:28:24;;;;;;;6.97;2.90;;;5.20;99.90;;;;;;5016760;28;20181;-89
2021/12/07 03:30:52;;;;;;;9.83;2.40;;;5.20;99.90;;;;;;5023220;28;20178;-89
2021/12/07 03:33:18;;;;;;;10.20;3.13;;;5.10;99.90;;;;;;5024483;28;20181;-90
2021/12/07 03:35:44;;;;;;;4.83;2.53;;;5.10;99.90;;;;;;5038568;28;20174;-81
2021/12/07 03:38:11;;;;;;;7.17;2.80;;;5.10;99.90;;;;;;5039724;28;20536;-85
2021/12/07 03:40:38;;;;;;;8.03;2.60;;;5.00;99.90;;;;;;5035478;28;20174;-89
2021/12/07 03:43:06;;;;;;;9.73;3.37;;;5.00;99.90;;;;;;5039372;28;20173;-88
2021/12/07 03:45:32;;;;;;;8.07;2.73;;;5.00;99.90;;;;;;5043292;28;20188;-87
2021/12/07 03:47:59;;;;;;;8.47;3.13;;;5.00;99.90;;;;;;5042487;28;20546;-90
2021/12/07 03:50:32;;;;;;;8.87;2.87;;;5.00;99.90;;;;;;5040449;28;20165;-88
2021/12/07 03:53:00;;;;;;;8.43;2.37;;;5.00;99.90;;;;;;5038924;28;20228;-89
2021/12/07 03:55:27;;;;;;;6.80;2.70;;;5.00;99.90;;;;;;5037478;28;20617;-89
2021/12/07 03:57:54;;;;;;;9.73;2.67;;;4.90;99.90;;;;;;5039705;28;20166;-89
2021/12/07 04:00:23;;;;;;;10.53;3.00;;;4.90;99.90;;;;;;5039839;28;20227;-89
2021/12/07 04:02:50;;;;;;;7.90;2.53;;;4.80;99.90;;;;;;5039822;28;20271;-89
2021/12/07 04:05:18;;;;;;;7.73;2.50;;;4.70;99.90;;;;;;5040753;28;20530;-91
2021/12/07 04:07:45;;;;;;;13.13;2.83;;;4.60;99.90;;;;;;5042357;28;20170;-89
2021/12/07 04:10:16;;;;;;;6.47;2.20;;;4.50;99.90;;;;;;5041818;28;20253;-88
2021/12/07 04:12:42;;;;;;;9.07;2.57;;;4.40;99.90;;;;;;5050898;28;20205;-87
2021/12/07 04:15:10;;;;;;;10.00;2.20;;;4.40;99.90;;;;;;5056418;28;20153;-88
2021/12/07 04:17:37;;;;;;;9.00;2.57;;;4.30;99.90;;;;;;5060527;28;20169;-82
2021/12/07 04:20:05;;;;;;;9.87;2.57;;;4.30;99.90;;;;;;5060554;28;20233;-86
2021/12/07 04:22:32;;;;;;;10.03;2.60;;;4.30;99.90;;;;;;5060505;28;20194;-84
2021/12/07 04:25:03;;;;;;;8.17;2.63;;;4.40;99.90;;;;;;5060683;28;20150;-81
2021/12/07 04:27:44;;;;;;;12.43;2.90;;;4.30;99.90;;;;;;5060657;28;20279;-79
2021/12/07 04:30:33;;;;;;;8.43;3.57;;;4.50;99.90;;;;;;5055696;28;20170;-83
2021/12/07 04:33:04;;;;;;;6.30;2.37;;;4.40;99.90;;;;;;5043283;28;20211;-88
2021/12/07 04:35:33;;;;;;;15.67;3.10;;;4.50;99.90;;;;;;5047467;28;20229;-86
2021/12/07 04:37:59;;;;;;;11.03;2.50;;;4.50;99.90;;;;;;5049121;28;20201;-88
2021/12/07 04:40:28;;;;;;;10.57;3.30;;;4.40;99.90;;;;;;5040437;28;20630;-88
2021/12/07 04:42:54;;;;;;;9.67;2.50;;;4.40;99.90;;;;;;5028973;28;20174;-88
2021/12/07 04:45:55;;;;;;;9.03;2.57;;;4.50;99.90;;;;;;5020046;28;20179;-89
2021/12/07 04:59:07;;;;;;;6.33;2.03;;;4.20;99.90;;;;;;5023130;28;20340;-87
2021/12/07 05:01:42;;;;;;;10.23;2.50;;;4.20;99.90;;;;;;5027217;28;20177;-89
2021/12/07 05:04:13;;;;;;;9.67;2.77;;;4.20;99.90;;;;;;5030285;28;20170;-86
2021/12/07 05:06:46;;;;;;;10.87;3.17;;;4.20;99.90;;;;;;5031114;28;20162;-89
2021/12/07 05:14:29;;;;;;;9.67;2.70;;;4.10;99.90;;;;;;5032791;28;20162;-85
2021/12/07 05:17:16;;;;;;;8.73;3.13;;;4.20;99.90;;;;;;5034218;28;20181;-81
2021/12/07 05:38:58;;;;;;;11.47;3.07;;;4.10;99.90;;;;;;5038832;28;20225;-79
2021/12/07 05:41:29;;;;;;;14.57;3.30;;;4.00;99.90;;;;;;5039088;28;20174;-84
2021/12/07 05:44:17;;;;;;;13.17;3.70;;;4.00;99.90;;;;;;5029746;28;20162;-89
2021/12/07 05:46:48;;;;;;;13.83;4.37;;;3.90;99.90;;;;;;5022606;28;20249;-88
2021/12/07 05:49:38;;;;;;;9.00;3.47;;;3.60;99.90;;;;;;5029790;28;20171;-88
2021/12/07 05:52:09;;;;;;;11.77;3.63;;;3.90;99.90;;;;;;5038971;28;20190;-82
2021/12/07 05:54:36;;;;;;;13.23;3.13;;;3.80;99.90;;;;;;5038733;28;20190;-81
2021/12/07 05:57:08;;;;;;;13.20;3.47;;;3.70;99.90;;;;;;5037044;28;20189;-87
2021/12/07 05:59:37;;;;;;;11.80;2.93;;;3.70;99.90;;;;;;5013216;28;20182;-89
2021/12/07 06:02:03;;;;;;;7.97;2.97;;;3.60;99.90;;;;;;5019437;28;20190;-83
2021/12/07 06:04:30;;;;;;;11.67;3.20;;;3.70;99.90;;;;;;5021461;28;20261;-88
2021/12/07 06:06:57;;;;;;;12.60;3.70;;;3.80;99.90;;;;;;5018854;28;20193;-88
2021/12/07 06:09:27;;;;;;;9.90;3.23;;;3.70;99.90;;;;;;5018537;28;20530;-87
2021/12/07 06:11:54;;;;;;;13.10;3.10;;;3.60;99.90;;;;;;5017459;28;20201;-90
2021/12/07 06:14:29;;;;;;;17.30;3.50;;;3.80;99.90;;;;;;5018956;28;20178;-87
2021/12/07 06:16:55;;;;;;;10.50;4.30;;;3.60;99.90;;;;;;5017284;28;20181;-88
2021/12/07 06:19:22;;;;;;;12.50;2.73;;;3.60;99.90;;;;;;5033923;28;20177;-82
2021/12/07 06:21:49;;;;;;;13.63;3.73;;;3.60;99.90;;;;;;5031675;28;20185;-78
2021/12/07 06:24:16;;;;;;;11.57;2.83;;;3.60;99.90;;;;;;5023618;28;20520;-88
2021/12/07 06:26:41;;;;;;;17.30;4.03;;;3.60;99.90;;;;;;5018926;28;20174;-89
2021/12/07 06:29:07;;;;;;;8.97;2.93;;;3.60;99.90;;;;;;5021426;28;20265;-83
2021/12/07 06:31:33;;;;;;;10.40;3.30;;;3.70;99.90;;;;;;5027593;28;20216;-85
2021/12/07 06:33:59;;;;;;;12.10;3.77;;;3.70;99.90;;;;;;5024736;28;20686;-87
2021/12/07 06:36:24;;;;;;;11.17;3.40;;;3.70;99.90;;;;;;5026319;28;20198;-88
2021/12/07 06:38:50;;;;;;;10.93;3.00;;;3.70;99.90;;;;;;5020276;28;20541;-89
2021/12/07 06:41:16;;;;;;;12.00;4.07;;;3.80;99.90;;;;;;5019240;28;20623;-86
2021/12/07 06:43:43;;;;;;;13.40;3.73;;;4.00;99.90;;;;;;5036390;28;20626;-90
2021/12/07 06:46:10;;;;;;;12.13;3.83;;;4.10;99.90;;;;;;5039237;28;20169;-89
2021/12/07 06:48:36;;;;;;;13.10;3.93;;;3.90;99.90;;;;;;5032872;28;20633;-89
2021/12/07 06:51:03;;;;;;;14.50;4.03;;;3.80;99.90;;;;;;5029167;28;20684;-85
2021/12/07 06:53:35;;;;;;;13.17;3.73;;;3.80;99.90;;;;;;5035506;28;20740;-87
2021/12/07 06:56:03;;;;;;;12.97;3.40;;;3.70;99.90;;;;;;5036911;28;20441;-86
2021/12/07 06:58:28;;;;;;;14.77;4.50;;;3.70;99.90;;;;;;5035202;28;20226;-86
2021/12/07 07:00:54;;;;;;;14.30;4.00;;;3.70;99.90;;;;;;5035127;28;20263;-86
2021/12/07 07:03:20;;;;;;;11.20;3.80;;;3.70;99.90;;;;;;5036004;28;20204;-81
2021/12/07 07:05:46;;;;;;;15.90;4.03;;;3.60;99.90;;;;;;5042037;28;20174;-84
2021/12/07 07:08:11;;;;;;;14.83;3.77;;;3.60;99.90;;;;;;5041573;28;20231;-87
2021/12/07 07:10:37;;;;;;;10.83;4.00;;;3.60;99.90;;;;;;5047251;28;20173;-88
2021/12/07 07:13:03;;;;;;;21.53;4.17;;;3.70;99.90;;;;;;5045719;28;20734;-87
2021/12/07 07:15:30;;;;;;;13.00;3.80;;;3.70;99.90;;;;;;5041906;28;20186;-88
2021/12/07 07:17:56;;;;;;;14.37;3.90;;;3.90;99.90;;;;;;5042342;28;20220;-86
2021/12/07 07:20:23;;;;;;;14.27;4.13;;;3.80;99.90;;;;;;5040830;28;20170;-86
2021/12/07 07:22:50;;;;;;;11.47;4.77;;;3.80;99.90;;;;;;5043987;28;20188;-82
2021/12/07 07:25:18;;;;;;;11.37;3.73;;;3.80;99.90;;;;;;5050919;28;20188;-84
2021/12/07 07:27:45;;;;;;;13.13;4.37;;;3.70;99.90;;;;;;5054936;28;20177;-85
2021/12/07 07:30:16;;;;;;;16.17;6.10;;;3.60;99.90;;;;;;5056383;28;20253;-86
2021/12/07 07:32:42;;;;;;;11.93;4.83;;;3.60;99.90;;;;;;5060871;28;20201;-81
2021/12/07 07:35:09;;;;;;;12.90;3.97;;;3.60;99.90;;;;;;5057943;28;20214;-86
2021/12/07 07:37:35;;;;;;;8.63;3.80;;;3.60;99.90;;;;;;5042552;28;20205;-79
2021/12/07 07:40:03;;;;;;;13.10;4.00;;;3.60;99.90;;;;;;5039638;28;20169;-83
2021/12/07 07:42:28;;;;;;;14.80;3.90;;;3.60;99.90;;;;;;5031156;28;20174;-85
2021/12/07 07:44:54;;;;;;;15.80;4.60;;;3.70;99.90;;;;;;5017623;28;20546;-86
2021/12/07 07:47:20;;;;;;;16.70;4.27;;;3.60;99.90;;;;;;5023118;28;20174;-80
2021/12/07 07:49:45;;;;;;;11.43;4.27;;;3.60;99.90;;;;;;5024205;28;20178;-78
2021/12/07 07:52:11;;;;;;;9.57;4.00;;;3.70;99.90;;;;;;5026775;28;20203;-81
2021/12/07 07:54:39;;;;;;;13.37;4.30;;;3.70;99.90;;;;;;5022957;28;20193;-79
2021/12/07 07:57:07;;;;;;;14.97;5.03;;;3.70;99.90;;;;;;5010232;28;20248;-77
2021/12/07 07:59:32;;;;;;;13.07;5.13;;;3.70;99.90;;;;;;5030639;28;20170;-84
2021/12/07 08:02:00;;;;;;;11.70;4.23;;;3.80;99.90;;;;;;5025003;28;20183;-86
2021/12/07 08:04:28;;;;;;;12.03;4.60;;;3.80;99.90;;;;;;5023088;28;20182;-83
2021/12/07 08:06:54;;;;;;;11.30;4.47;;;3.80;99.90;;;;;;5036887;28;20549;-85
2021/12/07 08:09:21;;;;;;;13.43;4.90;;;3.90;99.90;;;;;;5041337;28;20201;-86
2021/12/07 08:11:47;;;;;;;16.70;5.00;;;3.90;99.90;;;;;;5021921;28;20218;-86
2021/12/07 08:14:15;;;;;;;13.97;5.00;;;3.90;99.90;;;;;;5028696;28;20185;-84
2021/12/07 08:16:41;;;;;;;14.17;5.00;;;4.00;99.90;;;;;;5030042;28;20177;-82
2021/12/07 08:19:07;;;;;;;11.63;4.60;;;4.10;99.90;;;;;;5033082;28;20182;-84
2021/12/07 08:21:33;;;;;;;13.90;5.40;;;4.00;99.90;;;;;;5020872;28;20185;-83
2021/12/07 08:23:59;;;;;;;21.10;4.93;;;4.10;99.90;;;;;;5022433;28;20293;-85
2021/12/07 08:26:29;;;;;;;12.27;4.27;;;4.10;99.90;;;;;;5017269;28;20174;-84
2021/12/07 08:28:57;;;;;;;15.07;5.93;;;4.20;99.90;;;;;;5019304;28;20163;-82
2021/12/07 08:31:26;;;;;;;15.43;4.93;;;4.20;99.90;;;;;;5004611;28;20199;-84
2021/12/07 08:33:52;;;;;;;11.67;4.20;;;4.30;99.90;;;;;;5026464;28;20182;-83
2021/12/07 08:36:19;;;;;;;10.93;5.47;;;4.40;99.90;;;;;;5029213;28;20271;-82
2021/12/07 08:38:45;;;;;;;15.33;4.80;;;4.40;99.90;;;;;;5033217;28;20243;-82
2021/12/07 08:41:12;;;;;;;12.97;4.30;;;4.40;99.90;;;;;;5020338;28;20178;-82
2021/12/07 08:43:41;;;;;;;12.93;5.37;;;4.40;99.90;;;;;;5032768;28;20185;-84
2021/12/07 08:46:10;;;;;;;15.27;4.70;;;4.40;99.90;;;;;;5019748;28;20627;-83
2021/12/07 08:48:36;;;;;;;10.97;4.13;;;4.50;99.90;;;;;;5029954;28;20170;-83
2021/12/07 08:51:06;;;;;;;12.40;4.70;;;4.50;99.90;;;;;;5058387;28;20204;-83
2021/12/07 08:53:33;;;;;;;12.53;4.37;;;4.60;99.90;;;;;;5057250;28;20189;-79
2021/12/07 09:01:36;;;;;;;16.10;4.10;;;4.70;99.90;;;;;;5027924;28;20165;-79
2021/12/07 09:04:05;;;;;;;10.20;4.03;;;4.80;99.90;;;;;;5017211;28;20174;-79
2021/12/07 09:06:33;;;;;;;15.37;4.63;;;4.80;99.90;;;;;;5015647;28;20630;-78
2021/12/07 09:09:00;;;;;;;11.80;4.20;;;4.80;99.90;;;;;;5015639;28;20251;-79
2021/12/07 09:11:27;;;;;;;17.40;6.73;;;4.90;99.90;;;;;;5023106;28;20204;-78
2021/12/07 09:13:53;;;;;;;11.80;4.70;;;5.00;99.90;;;;;;5047391;28;20184;-80
2021/12/07 09:16:20;;;;;;;15.60;3.97;;;5.10;99.90;;;;;;5048216;28;20174;-78
2021/12/07 09:18:47;;;;;;;13.63;4.43;;;5.10;99.90;;;;;;5045154;28;20189;-79
2021/12/07 09:21:14;;;;;;;18.23;4.93;;;5.10;99.90;;;;;;5037110;28;20163;-81
2021/12/07 09:23:41;;;;;;;14.40;4.07;;;5.10;99.90;;;;;;5037453;28;20247;-83
2021/12/07 09:26:09;;;;;;;9.37;4.60;;;5.20;99.90;;;;;;5037743;28;20181;-85
2021/12/07 09:28:42;;;;;;;9.03;3.53;;;5.30;99.90;;;;;;5035732;28;20178;-83
2021/12/07 09:31:11;;;;;;;12.20;4.63;;;5.20;99.90;;;;;;5003256;28;20171;-82
2021/12/07 09:33:41;;;;;;;10.83;3.60;;;5.20;99.90;;;;;;5018545;28;20194;-85
2021/12/07 09:36:09;;;;;;;12.70;4.63;;;5.30;99.90;;;;;;5038682;28;20594;-82
2021/12/07 09:38:35;;;;;;;9.80;3.77;;;5.50;99.90;;;;;;5026987;28;20256;-82
2021/12/07 09:41:03;;;;;;;12.37;3.40;;;5.50;99.60;;;;;;5039147;28;20590;-85
2021/12/07 09:43:29;;;;;;;17.37;3.73;;;5.50;99.30;;;;;;5040612;28;20173;-85
2021/12/07 09:45:55;;;;;;;9.13;3.30;;;5.60;99.10;;;;;;5057146;28;20192;-82
2021/12/07 09:48:21;;;;;;;10.97;4.20;;;5.60;98.80;;;;;;5055119;28;20165;-83
2021/12/07 09:50:50;;;;;;;15.77;4.63;;;5.60;98.50;;;;;;5055788;28;20201;-78
2021/12/07 09:53:18;;;;;;;12.63;3.97;;;5.60;98.60;;;;;;5035798;28;20205;-80
2021/12/07 09:55:47;;;;;;;12.63;3.50;;;5.60;98.60;;;;;;5037409;28;20203;-82
2021/12/07 09:58:13;;;;;;;11.30;3.40;;;5.70;98.50;;;;;;5019827;28;20245;-82
2021/12/07 10:00:40;;;;;;;13.27;3.33;;;5.80;98.20;;;;;;5015246;28;20598;-81
2021/12/07 10:03:07;;;;;;;13.40;3.47;;;5.80;98.20;;;;;;5015559;28;20652;-83
2021/12/07 10:05:35;;;;;;;11.07;3.20;;;5.90;97.60;;;;;;5016087;28;20253;-78
2021/12/07 10:08:13;;;;;;;14.23;4.03;;;6.00;97.40;;;;;;5016705;28;20170;-81
2021/12/07 10:11:01;;;;;;;9.37;3.17;;;6.10;96.80;;;;;;5015633;28;20189;-84
2021/12/07 10:13:30;;;;;;;12.37;4.10;;;6.20;96.70;;;;;;5015649;28;20178;-82
2021/12/07 10:15:59;;;;;;;12.67;4.30;;;6.20;96.40;;;;;;5015532;28;20178;-79
2021/12/07 10:18:33;;;;;;;10.03;3.70;;;6.30;96.40;;;;;;5014272;28;20185;-80
2021/12/07 10:21:03;;;;;;;14.03;4.60;;;6.40;96.10;;;;;;5014338;28;20173;-79
2021/12/07 10:23:36;;;;;;;12.97;4.53;;;6.30;95.70;;;;;;5014378;28;20189;-80
2021/12/07 10:26:08;;;;;;;15.60;5.97;;;6.30;95.50;;;;;;5015212;28;20205;-78
2021/12/07 10:28:37;;;;;;;8.57;4.07;;;6.30;95.70;;;;;;5014980;28;20635;-80
2021/12/07 10:31:12;;;;;;;13.93;4.47;;;6.30;96.10;;;;;;5014678;28;20209;-81
2021/12/07 10:33:43;;;;;;;9.50;3.70;;;6.30;96.10;;;;;;5014470;28;20173;-83
2021/12/07 10:36:31;;;;;;;10.13;4.03;;;6.40;96.50;;;;;;5014665;28;20170;-80
2021/12/07 10:39:01;;;;;;;10.70;4.33;;;6.40;95.90;;;;;;5013422;28;20190;-82
2021/12/07 10:41:31;;;;;;;13.60;4.10;;;6.30;95.90;;;;;;5015149;28;20603;-82
2021/12/07 10:44:11;;;;;;;11.30;3.70;;;6.50;96.40;;;;;;5019524;28;20177;-80
2021/12/07 10:46:58;;;;;;;11.13;3.83;;;6.40;96.20;;;;;;5038548;28;20193;-80
2021/12/07 10:49:33;;;;;;;9.40;3.63;;;6.40;96.30;;;;;;5043559;28;20193;-81
2021/12/07 10:52:32;;;;;;;13.37;3.97;;;6.30;96.50;;;;;;5044075;28;20212;-81
2021/12/07 10:55:13;;;;;;;13.63;4.10;;;6.30;96.60;;;;;;5052928;28;20205;-83
2021/12/07 10:57:55;;;;;;;9.57;3.33;;;6.40;97.10;;;;;;5047512;28;20180;-83
2021/12/07 11:00:33;;;;;;;11.07;3.17;;;6.40;96.50;;;;;;5050988;28;20172;-79
2021/12/07 11:03:04;;;;;;;10.13;3.30;;;6.40;96.30;;;;;;5048151;28;20164;-81
2021/12/07 11:05:36;;;;;;;13.57;4.00;;;6.40;96.70;;;;;;5049212;28;20174;-78
2021/12/07 11:08:07;;;;;;;15.33;3.90;;;6.40;97.00;;;;;;5051608;28;20186;-80
2021/12/07 11:10:45;;;;;;;9.97;3.93;;;6.40;97.10;;;;;;5043941;28;20207;-81
2021/12/07 11:13:33;;;;;;;10.50;4.00;;;6.40;96.80;;;;;;5034155;28;20197;-83
2021/12/07 11:16:11;;;;;;;12.40;5.13;;;6.40;96.90;;;;;;5028301;28;20316;-81
2021/12/07 11:18:42;;;;;;;10.13;3.93;;;6.50;96.90;;;;;;5040401;28;20169;-79
2021/12/07 11:21:19;;;;;;;8.50;4.00;;;6.70;96.80;;;;;;5036234;28;20182;-80
2021/12/07 11:23:55;;;;;;;12.30;3.97;;;6.80;96.40;;;;;;5038451;28;20189;-82
2021/12/07 11:31:48;;;;;;;13.90;3.93;;;7.30;95.00;;;;;;5034463;28;20212;-79
2021/12/07 11:34:14;;;;;;;11.87;4.33;;;7.20;94.50;;;;;;5034921;28;20158;-81
2021/12/07 11:37:06;;;;;;;11.50;3.87;;;7.30;94.00;;;;;;5030190;28;20270;-84
2021/12/07 11:39:49;;;;;;;11.93;4.07;;;7.40;93.90;;;;;;5038251;28;20180;-83
2021/12/07 11:42:22;;;;;;;10.60;3.80;;;7.50;93.10;;;;;;5034534;28;20166;-84
2021/12/07 11:44:57;;;;;;;9.17;5.03;;;7.60;91.90;;;;;;5033218;28;20228;-84
2021/12/07 11:47:35;;;;;;;9.37;4.33;;;7.50;91.40;;;;;;5032604;28;20170;-84
2021/12/07 11:50:15;;;;;;;12.50;4.97;;;7.60;91.80;;;;;;5028478;28;20292;-81
2021/12/07 11:52:47;;;;;;;12.00;4.70;;;7.60;91.40;;;;;;5032730;28;20254;-83
2021/12/07 11:55:13;;;;;;;13.63;4.53;;;7.50;91.50;;;;;;5018254;28;20167;-82
2021/12/07 11:57:40;;;;;;;12.30;5.53;;;7.30;91.60;;;;;;5015356;28;20178;-83
2021/12/07 12:00:14;;;;;;;10.80;4.63;;;7.40;92.30;;;;;;5033480;28;20166;-79
2021/12/07 12:02:40;;;;;;;10.80;4.80;;;7.30;92.80;;;;;;5035936;28;20172;-83
2021/12/07 12:05:07;;;;;;;13.17;4.87;;;7.30;92.60;;;;;;5025917;28;20251;-84
2021/12/07 12:07:33;;;;;;;15.40;8.47;;;7.20;92.70;;;;;;5036601;28;20184;-84
2021/12/07 12:10:00;;;;;;;7.93;4.43;;;7.20;92.90;;;;;;5037529;28;20509;-80
2021/12/07 12:12:45;;;;;;;10.13;4.63;;;7.10;92.70;;;;;;5020312;28;20202;-81
2021/12/07 12:15:55;;;;;;;8.67;4.63;;;7.00;92.70;;;;;;5029552;28;20243;-83
2021/12/07 12:18:42;;;;;;;11.97;5.90;;;7.00;93.10;;;;;;5035489;28;20181;-82
2021/12/07 12:21:24;;;;;;;8.93;4.63;;;7.10;93.10;;;;;;5037112;28;20212;-80
2021/12/07 12:24:18;;;;;;;14.10;5.67;;;7.30;93.10;;;;;;5037743;28;20723;-82
2021/12/07 12:26:45;;;;;;;13.10;5.30;;;7.40;92.50;;;;;;5037885;28;20173;-80
2021/12/07 12:29:24;;;;;;;11.17;4.60;;;7.20;92.00;;;;;;5052307;28;20165;-81
2021/12/07 12:31:58;;;;;;;11.90;4.70;;;7.10;92.20;;;;;;5053078;28;20217;-81
2021/12/07 12:34:30;;;;;;;11.27;4.80;;;7.10;92.60;;;;;;5051231;28;20169;-82
2021/12/07 12:37:16;;;;;;;13.13;5.67;;;7.00;92.90;;;;;;5034610;28;20186;-83
2021/12/07 12:39:44;;;;;;;13.37;6.43;;;7.10;93.40;;;;;;5036652;28;20177;-80
2021/12/07 12:42:15;;;;;;;13.93;5.57;;;7.10;92.70;;;;;;5030829;28;20848;-83
2021/12/07 12:44:49;;;;;;;10.70;6.93;;;7.10;93.00;;;;;;5026410;28;20173;-85
2021/12/07 12:47:19;;;;;;;10.37;5.30;;;7.20;93.40;;;;;;5037558;28;20169;-86
2021/12/07 12:49:46;;;;;;;9.90;5.43;;;7.00;93.80;;;;;;5039379;28;20216;-83
2021/12/07 12:52:12;;;;;;;12.90;5.20;;;7.10;93.90;;;;;;5037230;28;20210;-86
2021/12/07 12:54:44;;;;;;;9.80;5.13;;;7.10;93.70;;;;;;5043732;28;20148;-83
2021/12/07 12:57:16;;;;;;;14.17;5.60;;;7.20;93.70;;;;;;5059147;28;20170;-83
2021/12/07 12:59:46;;;;;;;13.43;4.87;;;7.20;93.70;;;;;;5057598;28;20204;-84
2021/12/07 13:02:14;;;;;;;12.50;5.10;;;7.20;93.50;;;;;;5053772;28;20197;-85
2021/12/07 13:04:40;;;;;;;9.97;5.07;;;7.20;93.90;;;;;;5047701;28;20274;-82
2021/12/07 13:07:27;;;;;;;12.33;5.57;;;7.20;93.80;;;;;;5036752;28;20208;-81
2021/12/07 13:09:59;;;;;;;12.63;5.43;;;7.30;93.50;;;;;;5035063;28;20536;-79
2021/12/07 13:12:41;;;;;;;9.60;5.13;;;7.30;93.50;;;;;;5035960;28;20186;-81
2021/12/07 13:15:10;;;;;;;12.10;5.70;;;7.30;93.40;;;;;;5037120;28;20174;-83
2021/12/07 13:17:42;;;;;;;11.17;6.07;;;7.20;93.30;;;;;;5038380;28;20178;-81
2021/12/07 13:20:15;;;;;;;9.53;5.60;;;7.10;93.80;;;;;;5036132;28;20197;-81
2021/12/07 13:22:51;;;;;;;9.80;5.30;;;7.20;94.00;;;;;;5038483;28;20252;-80
2021/12/07 13:25:28;;;;;;;10.90;4.40;;;7.10;93.80;;;;;;5054618;28;20161;-82
2021/12/07 13:28:13;;;;;;;11.67;5.80;;;7.20;93.60;;;;;;5055763;28;20158;-82
2021/12/07 13:30:49;;;;;;;11.80;4.73;;;7.20;93.70;;;;;;5045992;28;20220;-80
2021/12/07 13:33:16;;;;;;;12.60;5.60;;;7.10;94.20;;;;;;5041208;28;20200;-80
2021/12/07 13:35:43;;;;;;;11.73;5.27;;;7.10;94.10;;;;;;5044096;28;20650;-84
2021/12/07 13:38:25;;;;;;;9.10;4.97;;;7.00;94.30;;;;;;5024652;28;20186;-84
2021/12/07 13:41:14;;;;;;;10.03;4.50;;;7.10;94.70;;;;;;5018371;28;20186;-87
2021/12/07 13:43:46;;;;;;;10.13;4.70;;;7.00;94.50;;;;;;5013122;28;20229;-85
2021/12/07 13:46:25;;;;;;;11.30;5.27;;;7.10;94.50;;;;;;5038175;28;20225;-85
2021/12/07 13:49:09;;;;;;;11.33;5.00;;;7.10;94.60;;;;;;5037170;28;20158;-85
2021/12/07 13:51:35;;;;;;;9.03;4.47;;;7.10;93.90;;;;;;5035680;28;20196;-87
2021/12/07 13:54:04;;;;;;;8.47;4.80;;;7.10;94.20;;;;;;5037322;28;20200;-85
2021/12/07 13:56:38;;;;;;;10.43;5.00;;;7.10;93.90;;;;;;5037545;28;20170;-88
2021/12/07 13:59:05;;;;;;;9.60;5.33;;;7.10;94.20;;;;;;5038493;28;20176;-87
2021/12/07 14:01:34;;;;;;;13.57;5.57;;;7.10;94.70;;;;;;5039548;28;20178;-83
2021/12/07 14:04:03;;;;;;;11.00;4.47;;;7.00;94.50;;;;;;5039376;28;20632;-85
2021/12/07 14:06:29;;;;;;;11.20;5.67;;;7.00;94.80;;;;;;5039280;28;20185;-84
2021/12/07 14:09:10;;;;;;;10.27;5.00;;;7.10;94.30;;;;;;5040550;28;20256;-86
2021/12/07 14:11:38;;;;;;;10.53;4.33;;;7.10;93.80;;;;;;5034253;28;20638;-86
2021/12/07 14:14:11;;;;;;;13.13;4.83;;;7.20;93.10;;;;;;5033362;28;20174;-84
2021/12/07 14:16:37;;;;;;;7.73;4.00;;;7.30;93.00;;;;;;5036043;28;20646;-84
2021/12/07 14:19:04;;;;;;;12.80;4.53;;;7.10;93.10;;;;;;5035670;28;20192;-87
2021/12/07 14:21:31;;;;;;;5.93;3.90;;;7.10;93.20;;;;;;5035557;28;20248;-86
2021/12/07 14:24:07;;;;;;;6.90;3.57;;;7.00;92.80;;;;;;5035303;28;20182;-88
2021/12/07 14:26:38;;;;;;;10.43;4.03;;;6.90;93.60;;;;;;5054205;28;20176;-85
2021/12/07 14:29:09;;;;;;;7.27;3.77;;;7.00;92.90;;;;;;5051864;28;20189;-85
2021/12/07 14:31:36;;;;;;;8.83;3.40;;;6.90;92.60;;;;;;5054739;28;20181;-83
2021/12/07 14:34:15;;;;;;;5.23;2.97;;;6.80;92.60;;;;;;5054734;28;20190;-86
2021/12/07 14:36:44;;;;;;;7.90;3.20;;;6.80;92.80;;;;;;5052230;28;20158;-80
2021/12/07 14:39:13;;;;;;;6.97;3.40;;;6.80;93.20;;;;;;5056980;28;20197;-81
2021/12/07 14:41:47;;;;;;;6.20;3.30;;;6.70;93.30;;;;;;5055685;28;20232;-85
2021/12/07 14:44:22;;;;;;;5.30;3.33;;;6.70;93.10;;;;;;5055885;28;20162;-82
2021/12/07 14:47:06;;;;;;;7.00;3.33;;;6.70;92.80;;;;;;5047810;28;20153;-81
2021/12/07 14:49:41;;;;;;;9.03;4.10;;;6.60;93.30;;;;;;5048398;28;20281;-88
2021/12/07 14:52:36;;;;;;;7.30;3.50;;;6.50;94.20;;;;;;5036794;28;20283;-84
2021/12/07 14:55:04;;;;;;;6.60;3.30;;;6.50;94.30;;;;;;5034780;28;20186;-82
2021/12/07 14:57:31;;;;;;;8.20;3.67;;;6.40;94.80;;;;;;5032710;28;20190;-80
2021/12/07 15:00:00;;;;;;;7.97;3.47;;;6.30;94.90;;;;;;5039460;28;20176;-86
2021/12/07 15:02:28;;;;;;;9.47;3.43;;;6.40;95.30;;;;;;5038648;28;20205;-85
2021/12/07 15:05:02;;;;;;;6.30;2.90;;;6.30;95.00;;;;;;5041074;28;20170;-82